Time;durP1;ratioP1;P1;durP2;ratioP2;P2;SDS_P1;SDS_P2;PMS_P1;PMS_P2;Temp;Humidity;BMP_temperature;BMP_pressure;BME280_temperature;BME280_humidity;BME280_pressure;Samples;Min_cycle;Max_cycle;Signal;HPM_P1;HPM_P2
2022/03/30 00:00:36;;;;;;;11.27;7.15;;;15.20;47.60;;;;;;5048576;28;20100;-66
2022/03/30 00:03:02;;;;;;;10.85;7.28;;;15.10;47.80;;;;;;5052486;28;20040;-66
2022/03/30 00:05:27;;;;;;;14.68;7.35;;;15.00;48.10;;;;;;5051360;28;20096;-66
2022/03/30 00:07:54;;;;;;;11.82;7.13;;;15.00;48.30;;;;;;5057931;28;20041;-66
2022/03/30 00:10:20;;;;;;;12.35;7.35;;;15.00;48.70;;;;;;5054413;28;20078;-66
2022/03/30 00:12:47;;;;;;;12.27;6.60;;;15.00;48.70;;;;;;5052484;28;20057;-66
2022/03/30 00:15:14;;;;;;;12.48;6.93;;;15.00;48.50;;;;;;5052093;28;20171;-66
2022/03/30 00:17:40;;;;;;;12.30;7.88;;;15.10;48.70;;;;;;5053285;28;20047;-66
2022/03/30 00:20:06;;;;;;;12.43;6.63;;;15.00;48.40;;;;;;5058986;28;20032;-66
2022/03/30 00:22:32;;;;;;;11.57;7.60;;;15.10;48.50;;;;;;5051529;28;20056;-66
2022/03/30 00:24:57;;;;;;;14.40;7.80;;;15.00;48.40;;;;;;5057997;28;20040;-66
2022/03/30 00:27:23;;;;;;;13.68;7.40;;;15.00;48.50;;;;;;5057840;28;20044;-66
2022/03/30 00:29:49;;;;;;;11.15;7.10;;;15.00;49.10;;;;;;5050519;28;20037;-66
2022/03/30 00:32:14;;;;;;;12.02;7.13;;;14.90;48.80;;;;;;5054526;28;20037;-66
2022/03/30 00:34:40;;;;;;;12.73;6.97;;;14.90;48.90;;;;;;5057103;28;20509;-66
2022/03/30 00:37:07;;;;;;;10.38;6.28;;;14.90;48.90;;;;;;5059091;28;20044;-66
2022/03/30 00:39:33;;;;;;;11.00;7.63;;;14.70;50.60;;;;;;5054989;28;20048;-66
2022/03/30 00:41:58;;;;;;;10.50;7.07;;;14.30;51.70;;;;;;5053653;28;20497;-66
2022/03/30 00:44:24;;;;;;;9.25;6.40;;;14.10;51.80;;;;;;5051934;28;20059;-66
2022/03/30 00:46:50;;;;;;;11.00;7.40;;;14.00;52.20;;;;;;5054390;28;20036;-66
2022/03/30 00:49:16;;;;;;;9.13;6.57;;;13.80;52.30;;;;;;5057371;28;20037;-66
2022/03/30 00:51:43;;;;;;;8.63;6.90;;;13.70;53.30;;;;;;5054045;28;20210;-66
2022/03/30 00:54:09;;;;;;;12.30;9.00;;;13.60;53.10;;;;;;5052425;28;20036;-66
2022/03/30 00:56:38;;;;;;;11.20;7.13;;;13.60;53.00;;;;;;5051188;28;20128;-66
2022/03/30 00:59:05;;;;;;;8.93;6.90;;;13.70;53.30;;;;;;5055083;28;20061;-65
2022/03/30 01:01:32;;;;;;;10.90;7.05;;;13.70;54.80;;;;;;5050460;28;20044;-67
2022/03/30 01:03:58;;;;;;;18.85;7.40;;;13.60;55.20;;;;;;5052684;28;20090;-65
2022/03/30 01:06:23;;;;;;;12.30;7.68;;;13.50;54.30;;;;;;5052261;28;20037;-65
2022/03/30 01:08:50;;;;;;;13.75;7.88;;;13.40;54.80;;;;;;5055376;28;20110;-65
2022/03/30 01:11:16;;;;;;;12.25;6.53;;;13.50;54.60;;;;;;5060070;28;20047;-66
2022/03/30 01:13:42;;;;;;;12.02;6.63;;;13.50;54.60;;;;;;5050515;28;20060;-65
2022/03/30 01:16:08;;;;;;;12.43;7.88;;;13.60;53.80;;;;;;5049008;28;20856;-66
2022/03/30 01:18:40;;;;;;;10.73;7.07;;;13.70;53.70;;;;;;5046134;28;20509;-66
2022/03/30 01:21:10;;;;;;;9.82;7.32;;;13.70;53.50;;;;;;5051298;28;20681;-65
2022/03/30 01:23:36;;;;;;;12.40;7.05;;;13.80;53.00;;;;;;5055772;28;20044;-66
2022/03/30 01:26:05;;;;;;;11.68;7.10;;;13.90;53.30;;;;;;5052573;28;20126;-66
2022/03/30 01:28:32;;;;;;;10.43;7.47;;;13.90;54.50;;;;;;5054006;28;20136;-66
2022/03/30 01:33:48;;;;;;;10.25;6.90;;;13.70;55.40;;;;;;5051238;28;20321;-66
2022/03/30 01:36:17;;;;;;;12.30;7.07;;;13.60;55.40;;;;;;5053307;28;20032;-66
2022/03/30 01:38:45;;;;;;;9.85;7.32;;;13.50;56.00;;;;;;5050871;28;20044;-66
2022/03/30 01:41:12;;;;;;;9.43;6.68;;;13.50;56.00;;;;;;5052705;28;20509;-66
2022/03/30 01:43:37;;;;;;;8.50;6.78;;;13.50;55.40;;;;;;5053088;28;20588;-66
2022/03/30 01:46:03;;;;;;;10.43;6.72;;;13.60;55.50;;;;;;5051884;28;20029;-65
2022/03/30 01:48:29;;;;;;;9.00;7.05;;;13.60;55.00;;;;;;5049301;28;20036;-66
2022/03/30 01:50:54;;;;;;;10.55;7.10;;;13.60;54.70;;;;;;5050302;28;20547;-66
2022/03/30 01:53:20;;;;;;;8.60;6.70;;;13.60;55.00;;;;;;5034665;28;20059;-66
2022/03/30 01:55:46;;;;;;;13.60;6.57;;;13.60;55.00;;;;;;5055338;28;20041;-66
2022/03/30 01:58:11;;;;;;;9.02;7.03;;;13.70;54.20;;;;;;5050711;28;20101;-66
2022/03/30 02:00:37;;;;;;;7.97;5.95;;;13.60;56.30;;;;;;5055152;28;20040;-66
2022/03/30 02:03:03;;;;;;;9.75;7.05;;;13.40;57.10;;;;;;5049194;28;20040;-66
2022/03/30 02:05:31;;;;;;;9.90;6.57;;;13.20;57.80;;;;;;5050079;28;20041;-66
2022/03/30 02:07:57;;;;;;;8.52;5.82;;;13.10;58.40;;;;;;5050687;28;20033;-66
2022/03/30 02:10:23;;;;;;;7.57;5.97;;;13.00;57.00;;;;;;5047995;28;20052;-66
2022/03/30 02:12:48;;;;;;;11.93;7.03;;;12.90;58.00;;;;;;5046839;28;20178;-66
2022/03/30 02:15:14;;;;;;;9.93;6.65;;;12.80;58.50;;;;;;5049538;28;20136;-67
2022/03/30 02:17:40;;;;;;;7.45;5.53;;;12.80;59.20;;;;;;5048403;28;20048;-66
2022/03/30 02:20:08;;;;;;;7.03;5.10;;;12.70;59.80;;;;;;5043125;28;20107;-66
2022/03/30 02:22:34;;;;;;;12.45;6.78;;;12.60;60.50;;;;;;5047013;28;20052;-66
2022/03/30 02:24:59;;;;;;;7.22;5.35;;;12.50;60.70;;;;;;5053879;28;20045;-66
2022/03/30 02:27:25;;;;;;;8.32;6.05;;;12.50;60.60;;;;;;5050715;28;20029;-66
2022/03/30 02:29:54;;;;;;;8.27;6.25;;;12.60;59.20;;;;;;5056406;28;20044;-66
2022/03/30 02:32:20;;;;;;;8.52;5.65;;;12.70;59.30;;;;;;5051957;28;22361;-66
2022/03/30 02:34:46;;;;;;;9.60;5.50;;;12.60;60.20;;;;;;5046952;28;20131;-66
2022/03/30 02:37:12;;;;;;;10.85;5.25;;;12.50;59.80;;;;;;5057014;28;20041;-66
2022/03/30 02:39:38;;;;;;;6.35;5.18;;;12.20;60.40;;;;;;5056716;28;20053;-66
2022/03/30 02:42:07;;;;;;;8.27;5.32;;;12.10;61.80;;;;;;5055789;28;20032;-66
2022/03/30 02:44:36;;;;;;;7.25;5.85;;;12.00;63.30;;;;;;5059161;28;20036;-66
2022/03/30 02:47:04;;;;;;;8.68;5.07;;;12.00;63.80;;;;;;5056222;28;20041;-66
2022/03/30 02:49:29;;;;;;;10.85;5.20;;;11.90;64.60;;;;;;5049084;28;20036;-66
2022/03/30 02:51:55;;;;;;;8.40;5.10;;;11.80;63.70;;;;;;5054670;28;20498;-66
2022/03/30 02:54:21;;;;;;;7.00;5.00;;;11.80;65.10;;;;;;5056955;28;20095;-66
2022/03/30 02:56:47;;;;;;;12.63;5.68;;;11.90;63.70;;;;;;5059978;28;20066;-66
2022/03/30 02:59:14;;;;;;;8.77;5.78;;;11.90;63.00;;;;;;5054091;28;20631;-66
2022/03/30 03:01:40;;;;;;;8.55;5.72;;;12.00;63.00;;;;;;5052581;28;20116;-66
2022/03/30 03:04:06;;;;;;;8.23;5.00;;;12.00;63.30;;;;;;5053558;28;20124;-66
2022/03/30 03:06:32;;;;;;;6.38;5.30;;;11.90;64.80;;;;;;5053262;28;20091;-66
2022/03/30 03:08:58;;;;;;;10.00;5.82;;;11.80;64.70;;;;;;5057849;28;20959;-66
2022/03/30 03:11:24;;;;;;;9.63;6.10;;;11.70;65.40;;;;;;5053264;28;20033;-66
2022/03/30 03:13:51;;;;;;;12.27;5.80;;;11.70;64.70;;;;;;5053002;28;20547;-66
2022/03/30 03:16:18;;;;;;;7.40;5.28;;;11.70;64.20;;;;;;5057410;28;20032;-66
2022/03/30 03:18:44;;;;;;;8.93;5.30;;;11.80;64.60;;;;;;5040522;28;20041;-66
2022/03/30 03:21:09;;;;;;;7.10;5.30;;;11.70;64.70;;;;;;5057249;28;20036;-66
2022/03/30 03:23:35;;;;;;;9.65;5.20;;;11.70;64.80;;;;;;5051179;28;20044;-66
2022/03/30 03:26:01;;;;;;;7.53;5.20;;;11.70;64.50;;;;;;5052765;28;20033;-66
2022/03/30 03:28:27;;;;;;;8.48;5.18;;;11.70;64.70;;;;;;5057510;28;20040;-66
2022/03/30 03:30:52;;;;;;;12.40;5.97;;;11.50;65.00;;;;;;5058901;28;20041;-66
2022/03/30 03:33:18;;;;;;;9.38;5.45;;;11.50;64.70;;;;;;5055699;28;20040;-66
2022/03/30 03:35:44;;;;;;;8.63;5.32;;;11.50;65.20;;;;;;5056900;28;20120;-66
2022/03/30 03:38:10;;;;;;;8.05;5.40;;;11.40;65.30;;;;;;5058251;28;20067;-66
2022/03/30 03:40:37;;;;;;;8.68;5.57;;;11.30;65.70;;;;;;5052676;28;20064;-66
2022/03/30 03:43:04;;;;;;;7.78;5.35;;;11.20;66.20;;;;;;5055914;28;21591;-66
2022/03/30 03:45:30;;;;;;;10.95;5.90;;;11.10;66.60;;;;;;5056133;28;20409;-66
2022/03/30 03:47:56;;;;;;;14.48;5.13;;;10.90;67.10;;;;;;5055525;28;20040;-66
2022/03/30 03:50:22;;;;;;;10.73;5.32;;;10.70;68.50;;;;;;5050471;28;20039;-66
2022/03/30 03:52:49;;;;;;;10.55;5.90;;;10.60;68.80;;;;;;5055384;28;20044;-65
2022/03/30 03:55:15;;;;;;;14.82;6.00;;;10.50;69.20;;;;;;5050781;28;20120;-66
2022/03/30 03:57:42;;;;;;;8.20;6.13;;;10.50;68.70;;;;;;5054987;28;20082;-66
2022/03/30 04:00:11;;;;;;;9.65;5.40;;;10.40;69.00;;;;;;5054158;28;20032;-66
2022/03/30 04:02:37;;;;;;;9.15;5.53;;;10.30;69.40;;;;;;5055615;28;20045;-66
2022/03/30 04:05:03;;;;;;;9.00;6.15;;;10.30;69.50;;;;;;5058072;28;20446;-66
2022/03/30 04:07:29;;;;;;;8.70;6.10;;;10.30;69.00;;;;;;5057550;28;20605;-66
2022/03/30 04:09:55;;;;;;;6.85;5.78;;;10.20;68.70;;;;;;5054303;28;20040;-66
2022/03/30 04:12:20;;;;;;;7.07;5.35;;;10.20;68.90;;;;;;5052038;28;20035;-66
2022/03/30 04:14:46;;;;;;;11.18;5.70;;;10.10;68.80;;;;;;5053290;28;20073;-66
2022/03/30 04:17:12;;;;;;;43.20;26.52;;;10.10;69.50;;;;;;5050177;28;20115;-66
2022/03/30 04:19:38;;;;;;;110.28;69.80;;;10.00;70.10;;;;;;5057165;28;20036;-66
2022/03/30 04:22:04;;;;;;;40.28;28.17;;;10.20;70.00;;;;;;5048264;28;20130;-66
2022/03/30 04:24:30;;;;;;;44.78;30.17;;;10.30;69.30;;;;;;5055354;28;20564;-66
2022/03/30 04:26:56;;;;;;;31.50;19.70;;;10.40;69.20;;;;;;5049988;28;20037;-66
2022/03/30 04:29:21;;;;;;;27.08;16.17;;;10.20;69.50;;;;;;5052402;28;20488;-66
2022/03/30 04:31:47;;;;;;;23.88;10.52;;;10.20;70.10;;;;;;5052604;28;20134;-66
2022/03/30 04:34:13;;;;;;;12.02;7.90;;;10.00;70.90;;;;;;5053322;28;20582;-65
2022/03/30 04:36:38;;;;;;;10.60;8.20;;;9.60;71.40;;;;;;5057874;28;20032;-66
2022/03/30 04:39:04;;;;;;;19.88;9.30;;;9.40;72.90;;;;;;5031107;28;20056;-66
2022/03/30 04:41:30;;;;;;;16.90;9.23;;;9.40;72.90;;;;;;5054260;28;20075;-66
2022/03/30 04:43:56;;;;;;;16.75;8.93;;;9.40;73.40;;;;;;5058800;28;20036;-66
2022/03/30 04:46:22;;;;;;;15.52;9.05;;;9.30;73.90;;;;;;5049431;28;20136;-65
2022/03/30 04:48:47;;;;;;;10.00;7.38;;;9.30;73.80;;;;;;5049987;28;20400;-65
2022/03/30 04:51:13;;;;;;;16.80;8.40;;;9.30;73.70;;;;;;5055514;28;20543;-65
2022/03/30 04:53:39;;;;;;;14.68;7.28;;;9.30;74.10;;;;;;5036268;28;20055;-65
2022/03/30 04:56:05;;;;;;;15.90;7.50;;;9.40;74.40;;;;;;5054781;28;20087;-65
2022/03/30 04:58:31;;;;;;;12.75;8.65;;;9.40;75.00;;;;;;5055236;28;20681;-66
2022/03/30 05:00:56;;;;;;;19.33;8.32;;;9.40;75.30;;;;;;5055312;28;20064;-65
2022/03/30 05:03:22;;;;;;;13.80;8.48;;;9.50;75.20;;;;;;5056165;28;20037;-66
2022/03/30 05:05:48;;;;;;;10.95;8.25;;;9.60;74.40;;;;;;5054341;28;20032;-66
2022/03/30 05:08:13;;;;;;;17.38;8.45;;;9.80;73.70;;;;;;5040797;28;20044;-65
2022/03/30 05:10:39;;;;;;;24.20;9.27;;;9.80;73.70;;;;;;5051324;28;20027;-66
2022/03/30 05:13:05;;;;;;;16.15;7.00;;;9.70;74.30;;;;;;5051688;28;20040;-64
2022/03/30 05:15:32;;;;;;;19.63;7.82;;;9.70;74.50;;;;;;5058877;28;20480;-65
2022/03/30 05:17:59;;;;;;;14.48;7.93;;;9.50;74.50;;;;;;5037544;28;20048;-66
2022/03/30 05:20:25;;;;;;;14.38;8.15;;;9.40;76.80;;;;;;5050708;28;20218;-65
2022/03/30 05:22:51;;;;;;;19.30;8.15;;;9.40;77.90;;;;;;5054463;28;20537;-66
2022/03/30 05:25:19;;;;;;;23.15;8.02;;;9.40;77.70;;;;;;5038802;28;20441;-65
2022/03/30 05:27:45;;;;;;;26.65;8.20;;;9.40;77.90;;;;;;5049666;28;20265;-66
2022/03/30 05:30:12;;;;;;;15.68;7.60;;;9.40;77.70;;;;;;5058307;28;20029;-66
2022/03/30 05:32:38;;;;;;;18.80;7.25;;;9.40;78.10;;;;;;5048971;28;20114;-66
2022/03/30 05:35:05;;;;;;;11.52;7.50;;;9.40;79.10;;;;;;5051144;28;20056;-66
2022/03/30 05:37:32;;;;;;;19.77;10.23;;;9.40;79.60;;;;;;5059793;28;20036;-66
2022/03/30 05:39:57;;;;;;;18.83;8.93;;;9.50;79.80;;;;;;5055915;28;20130;-66
2022/03/30 05:42:23;;;;;;;15.52;10.80;;;9.50;80.60;;;;;;5055548;28;20518;-65
2022/03/30 05:44:50;;;;;;;13.90;8.65;;;9.50;79.20;;;;;;5051105;28;20052;-66
2022/03/30 05:47:16;;;;;;;12.82;8.32;;;9.70;77.20;;;;;;5052836;28;20127;-66
2022/03/30 05:49:42;;;;;;;13.90;8.20;;;10.10;75.30;;;;;;5059550;28;20067;-66
2022/03/30 05:52:08;;;;;;;24.75;14.05;;;10.30;73.20;;;;;;5059985;28;20043;-66
2022/03/30 05:54:35;;;;;;;18.85;10.85;;;10.50;76.30;;;;;;5056862;28;20049;-66
2022/03/30 05:57:01;;;;;;;18.48;10.18;;;10.30;77.70;;;;;;5055332;28;20157;-66
2022/03/30 05:59:41;;;;;;;24.20;9.85;;;10.30;75.50;;;;;;5051895;28;20037;-66
2022/03/30 06:02:09;;;;;;;19.80;8.90;;;10.50;77.20;;;;;;5053008;28;20384;-66
2022/03/30 06:04:36;;;;;;;15.23;7.95;;;10.50;79.00;;;;;;5051526;28;20044;-66
2022/03/30 06:07:02;;;;;;;18.92;8.93;;;10.50;80.10;;;;;;5056527;28;20040;-66
2022/03/30 06:09:29;;;;;;;24.13;9.02;;;10.50;81.30;;;;;;5052812;28;20513;-66
2022/03/30 06:11:55;;;;;;;13.02;8.35;;;10.40;82.00;;;;;;5057690;28;20036;-66
2022/03/30 06:14:21;;;;;;;16.42;8.90;;;10.40;81.30;;;;;;5046463;28;20786;-65
2022/03/30 06:16:47;;;;;;;15.73;9.20;;;10.50;79.80;;;;;;5055037;28;20044;-66
2022/03/30 06:19:14;;;;;;;20.90;12.23;;;10.70;79.60;;;;;;5050480;28;20067;-66
2022/03/30 06:21:42;;;;;;;19.25;10.65;;;10.90;77.70;;;;;;5053008;28;20045;-66
2022/03/30 06:24:10;;;;;;;13.93;8.27;;;11.10;77.80;;;;;;5055081;28;20549;-66
2022/03/30 06:26:37;;;;;;;25.75;13.15;;;11.30;78.20;;;;;;5055624;28;20028;-65
2022/03/30 06:29:03;;;;;;;17.02;10.38;;;11.40;76.00;;;;;;5053707;28;20041;-65
2022/03/30 06:31:29;;;;;;;16.17;9.13;;;11.60;73.40;;;;;;5047160;28;20120;-66
2022/03/30 06:33:54;;;;;;;12.00;8.80;;;11.80;70.30;;;;;;5053061;28;20040;-66
2022/03/30 06:36:21;;;;;;;18.52;10.48;;;12.00;69.90;;;;;;5052382;28;20463;-66
2022/03/30 06:38:46;;;;;;;20.98;10.35;;;12.20;69.00;;;;;;5055168;28;20065;-66
2022/03/30 06:41:17;;;;;;;14.82;9.18;;;12.50;68.00;;;;;;5051462;28;20174;-66
2022/03/30 06:43:46;;;;;;;20.45;9.27;;;12.70;66.50;;;;;;5053969;28;20048;-66
2022/03/30 06:46:15;;;;;;;18.33;10.18;;;12.90;65.10;;;;;;5055290;28;20044;-66
2022/03/30 06:48:42;;;;;;;14.23;9.60;;;13.00;64.20;;;;;;5053555;28;20082;-65
2022/03/30 06:51:07;;;;;;;15.65;9.75;;;13.20;62.70;;;;;;5053958;28;20041;-66
2022/03/30 06:53:33;;;;;;;17.65;9.02;;;13.30;62.60;;;;;;5054677;28;20049;-65
2022/03/30 06:55:59;;;;;;;23.30;9.60;;;13.40;62.10;;;;;;5054349;28;20049;-66
2022/03/30 06:58:26;;;;;;;14.80;10.10;;;13.60;61.70;;;;;;5056964;28;20151;-66
2022/03/30 07:00:52;;;;;;;16.70;9.65;;;13.80;61.70;;;;;;5050245;28;20509;-66
2022/03/30 07:03:19;;;;;;;17.25;10.05;;;14.00;62.50;;;;;;5035184;28;20033;-66
2022/03/30 07:05:45;;;;;;;13.75;9.38;;;14.30;62.10;;;;;;5045701;28;20045;-66
2022/03/30 07:10:55;;;;;;;12.48;8.90;;;14.70;58.60;;;;;;5056693;28;20043;-66
2022/03/30 07:13:22;;;;;;;19.17;9.82;;;14.90;57.60;;;;;;5052860;28;20052;-65
2022/03/30 07:15:48;;;;;;;16.05;10.18;;;15.10;56.60;;;;;;5053793;28;20079;-66
2022/03/30 07:18:14;;;;;;;14.38;9.60;;;15.20;56.40;;;;;;5046664;28;20029;-66
2022/03/30 07:20:40;;;;;;;18.05;10.30;;;15.30;56.30;;;;;;5051336;28;20090;-66
2022/03/30 07:23:10;;;;;;;16.40;9.95;;;15.40;56.40;;;;;;5055344;28;20045;-67
2022/03/30 07:25:36;;;;;;;21.27;11.15;;;15.50;56.70;;;;;;5050738;28;20029;-66
2022/03/30 07:28:03;;;;;;;13.50;9.80;;;15.60;55.50;;;;;;5055741;28;20585;-66
2022/03/30 07:30:30;;;;;;;16.42;10.32;;;15.70;55.20;;;;;;5058096;28;20033;-66
2022/03/30 07:32:57;;;;;;;16.00;9.98;;;15.80;55.60;;;;;;5057668;28;20037;-66
2022/03/30 07:35:27;;;;;;;15.65;10.18;;;16.00;54.60;;;;;;5054532;28;20062;-66
2022/03/30 07:37:53;;;;;;;16.50;10.40;;;16.00;54.90;;;;;;5058853;28;20053;-67
2022/03/30 07:40:21;;;;;;;15.57;9.80;;;16.10;53.60;;;;;;5058134;28;20820;-69
2022/03/30 07:42:49;;;;;;;16.52;9.95;;;16.00;54.10;;;;;;5064444;28;20401;-69
2022/03/30 07:45:15;;;;;;;15.25;10.10;;;16.00;53.80;;;;;;5048656;28;20079;-67
2022/03/30 07:47:42;;;;;;;18.02;10.45;;;16.00;53.30;;;;;;5053989;28;20036;-67
2022/03/30 07:50:09;;;;;;;23.33;10.23;;;16.00;53.10;;;;;;5059495;28;20125;-67
2022/03/30 07:52:35;;;;;;;16.92;9.40;;;16.00;53.80;;;;;;5046249;28;20071;-66
2022/03/30 07:55:01;;;;;;;13.77;8.70;;;16.10;52.90;;;;;;5043262;28;20137;-67
2022/03/30 07:57:27;;;;;;;18.20;9.45;;;16.20;52.30;;;;;;5032704;28;20040;-66
2022/03/30 07:59:57;;;;;;;16.38;9.75;;;16.20;52.80;;;;;;5049928;28;20452;-67
2022/03/30 08:02:23;;;;;;;23.25;9.73;;;16.30;52.40;;;;;;5052711;28;20501;-66
2022/03/30 08:04:50;;;;;;;22.17;9.95;;;16.30;52.20;;;;;;5041379;28;20044;-66
2022/03/30 08:07:16;;;;;;;14.98;9.77;;;16.40;51.90;;;;;;5056224;28;20044;-67
2022/03/30 08:09:42;;;;;;;23.08;9.60;;;16.40;51.40;;;;;;5049732;28;20941;-67
2022/03/30 08:12:10;;;;;;;15.60;9.45;;;16.50;51.60;;;;;;5054650;28;20044;-67
2022/03/30 08:14:36;;;;;;;16.35;9.88;;;16.50;51.80;;;;;;5051835;28;20152;-66
2022/03/30 08:17:02;;;;;;;13.35;8.57;;;16.40;51.80;;;;;;5036846;28;20115;-68
2022/03/30 08:19:28;;;;;;;15.00;10.13;;;16.50;52.50;;;;;;5053200;28;20083;-74
2022/03/30 08:24:39;;;;;;;12.38;8.27;;;16.60;52.20;;;;;;5047601;28;20149;-74
2022/03/30 08:27:05;;;;;;;13.98;8.98;;;16.70;52.30;;;;;;5062105;28;20488;-74
2022/03/30 08:29:31;;;;;;;16.50;8.65;;;16.70;52.10;;;;;;5054131;28;20041;-74
2022/03/30 08:31:57;;;;;;;16.42;7.50;;;16.60;52.30;;;;;;5039010;28;20064;-74
2022/03/30 08:34:23;;;;;;;11.73;7.97;;;16.70;52.40;;;;;;5057240;28;20091;-74
2022/03/30 08:36:49;;;;;;;11.95;8.77;;;16.70;51.80;;;;;;5069523;28;20064;-73
2022/03/30 08:39:15;;;;;;;13.00;8.13;;;16.70;51.90;;;;;;5064163;28;20044;-73
2022/03/30 08:41:47;;;;;;;14.23;9.10;;;16.80;52.20;;;;;;5063230;28;20481;-73
2022/03/30 08:44:14;;;;;;;11.98;8.82;;;16.90;52.30;;;;;;5068431;28;20063;-74
2022/03/30 08:46:41;;;;;;;16.00;8.43;;;17.00;52.30;;;;;;5067284;28;20033;-73
2022/03/30 08:49:08;;;;;;;15.80;9.98;;;17.00;52.10;;;;;;5067542;28;20332;-73
2022/03/30 08:51:40;;;;;;;18.70;9.63;;;17.10;50.70;;;;;;5059041;28;20036;-74
2022/03/30 08:54:09;;;;;;;15.23;9.00;;;17.10;51.00;;;;;;5060919;28;20045;-73
2022/03/30 08:56:37;;;;;;;15.98;8.73;;;17.20;51.50;;;;;;5051050;28;20056;-74
2022/03/30 08:59:08;;;;;;;14.20;9.18;;;17.20;50.60;;;;;;5061352;28;20163;-73
2022/03/30 09:01:36;;;;;;;13.85;8.60;;;17.30;50.30;;;;;;5058784;28;20029;-68
2022/03/30 09:04:04;;;;;;;15.27;9.13;;;17.20;50.50;;;;;;5053946;28;20040;-67
2022/03/30 09:06:45;;;;;;;14.90;8.30;;;17.20;50.60;;;;;;5049936;28;20033;-68
2022/03/30 09:09:13;;;;;;;13.27;8.85;;;17.20;50.50;;;;;;5059102;28;20321;-67
2022/03/30 09:11:41;;;;;;;13.23;8.70;;;17.30;50.90;;;;;;5052629;28;20045;-68
2022/03/30 09:14:10;;;;;;;18.25;8.60;;;17.40;50.30;;;;;;5054903;28;20729;-68
2022/03/30 09:16:44;;;;;;;12.98;9.32;;;17.40;49.40;;;;;;5047396;28;20029;-68
2022/03/30 09:19:13;;;;;;;13.25;8.10;;;17.40;49.70;;;;;;5054341;28;20208;-68
2022/03/30 09:21:46;;;;;;;13.73;7.90;;;17.50;50.60;;;;;;5053191;28;20394;-68
2022/03/30 09:24:13;;;;;;;15.00;8.68;;;17.60;50.70;;;;;;5054840;28;20040;-68
2022/03/30 09:26:39;;;;;;;10.88;7.85;;;17.70;49.80;;;;;;5058195;28;20072;-68
2022/03/30 09:29:07;;;;;;;23.85;9.85;;;17.70;49.80;;;;;;5049280;28;21045;-68
2022/03/30 09:31:36;;;;;;;13.02;8.48;;;17.70;49.10;;;;;;5056821;28;20421;-69
2022/03/30 09:34:03;;;;;;;10.93;8.25;;;17.70;50.20;;;;;;5045209;28;20080;-69
2022/03/30 09:36:31;;;;;;;11.10;8.35;;;17.90;49.70;;;;;;5048999;28;20039;-69
2022/03/30 09:38:57;;;;;;;10.10;6.53;;;18.00;50.00;;;;;;5052300;28;20056;-68
2022/03/30 09:41:23;;;;;;;10.13;6.82;;;18.00;48.50;;;;;;5046312;28;20045;-68
2022/03/30 09:43:49;;;;;;;15.43;7.95;;;18.10;49.40;;;;;;5032384;28;20055;-68
2022/03/30 09:46:15;;;;;;;11.77;7.43;;;18.30;50.00;;;;;;5042049;28;20086;-69
2022/03/30 09:48:49;;;;;;;16.77;8.15;;;18.40;48.90;;;;;;5050505;28;20037;-69
2022/03/30 09:51:19;;;;;;;10.93;7.40;;;18.40;47.40;;;;;;5042629;28;20037;-69
2022/03/30 09:53:46;;;;;;;12.95;8.02;;;18.30;47.60;;;;;;5045018;28;20047;-69
2022/03/30 09:56:20;;;;;;;14.15;8.15;;;18.30;47.60;;;;;;5052351;28;20144;-69
2022/03/30 09:58:47;;;;;;;13.73;8.40;;;18.40;47.30;;;;;;5041190;28;20032;-69
2022/03/30 10:01:22;;;;;;;13.05;8.07;;;18.50;47.20;;;;;;5049606;28;20049;-69
2022/03/30 10:03:59;;;;;;;14.05;8.15;;;18.60;47.10;;;;;;5050475;28;20067;-69
2022/03/30 10:06:34;;;;;;;19.60;9.30;;;18.80;47.70;;;;;;5042572;28;20048;-69
2022/03/30 10:09:00;;;;;;;28.90;9.15;;;18.90;45.40;;;;;;5048643;28;20044;-69
2022/03/30 10:11:28;;;;;;;25.02;7.80;;;18.80;45.70;;;;;;5047933;28;20032;-69
2022/03/30 10:13:58;;;;;;;46.92;12.32;;;18.80;46.50;;;;;;5045678;28;20045;-69
2022/03/30 10:16:24;;;;;;;17.10;7.03;;;18.80;46.40;;;;;;5045201;28;20037;-69
2022/03/30 10:18:51;;;;;;;32.55;9.25;;;18.90;46.00;;;;;;5051057;28;20550;-69
2022/03/30 10:21:39;;;;;;;13.45;7.28;;;18.90;46.00;;;;;;5054536;28;20047;-69
2022/03/30 10:24:23;;;;;;;12.00;7.40;;;18.90;45.70;;;;;;5045881;28;20314;-69
2022/03/30 10:27:22;;;;;;;16.52;7.38;;;18.90;45.20;;;;;;5051474;28;20115;-69
2022/03/30 10:30:01;;;;;;;11.38;7.50;;;18.90;45.10;;;;;;5049360;28;20098;-69
2022/03/30 10:32:33;;;;;;;9.68;7.80;;;18.70;45.50;;;;;;5055713;28;20029;-69
2022/03/30 10:35:05;;;;;;;;;;;18.60;45.60;;;;;;5048693;28;20045;-69
2022/03/30 10:37:40;;;;;;;12.33;7.63;;;18.50;45.40;;;;;;5053203;28;19935;-69
2022/03/30 10:40:07;;;;;;;8.50;6.80;;;18.40;44.90;;;;;;5036165;28;20523;-69
2022/03/30 10:42:48;;;;;;;10.10;6.95;;;18.30;45.80;;;;;;5056504;28;20048;-69
2022/03/30 10:45:28;;;;;;;9.02;6.90;;;18.40;45.30;;;;;;5056269;28;20120;-69
2022/03/30 10:48:08;;;;;;;8.75;6.72;;;18.50;45.40;;;;;;5061683;28;20043;-69
2022/03/30 10:50:43;;;;;;;13.00;6.95;;;18.40;44.40;;;;;;5059096;28;20040;-69
2022/03/30 10:53:31;;;;;;;12.23;7.05;;;18.30;45.80;;;;;;5059007;28;20509;-69
2022/03/30 10:56:14;;;;;;;12.70;7.88;;;18.30;46.00;;;;;;5060764;28;20040;-69
2022/03/30 10:58:49;;;;;;;12.23;8.05;;;18.40;46.40;;;;;;5052128;28;20041;-69
2022/03/30 11:01:25;;;;;;;14.93;7.82;;;18.40;45.90;;;;;;5048515;28;20032;-69
2022/03/30 11:04:04;;;;;;;12.60;8.75;;;18.30;46.60;;;;;;5061350;28;20051;-69
2022/03/30 11:06:39;;;;;;;14.88;8.38;;;18.30;46.40;;;;;;5052441;28;20564;-68
2022/03/30 11:09:09;;;;;;;12.35;8.50;;;18.10;46.10;;;;;;5056026;28;20047;-69
2022/03/30 11:11:44;;;;;;;65.72;50.42;;;18.10;47.30;;;;;;5055434;28;20257;-69
2022/03/30 11:14:34;;;;;;;15.40;13.05;;;18.10;46.40;;;;;;5047386;28;20041;-70
2022/03/30 11:17:08;;;;;;;15.70;10.90;;;18.10;46.10;;;;;;5056815;28;20063;-69
2022/03/30 11:19:58;;;;;;;11.30;8.05;;;18.10;47.10;;;;;;5054606;28;20107;-69
2022/03/30 11:22:32;;;;;;;16.30;7.85;;;18.20;45.90;;;;;;5054927;28;20037;-70
2022/03/30 11:25:10;;;;;;;10.45;8.95;;;18.10;45.60;;;;;;5051435;28;20037;-69
2022/03/30 11:27:37;;;;;;;17.33;15.35;;;18.20;46.30;;;;;;5055290;28;20037;-69
2022/03/30 11:30:17;;;;;;;13.52;8.98;;;18.20;45.40;;;;;;5059035;28;20055;-69
2022/03/30 11:32:51;;;;;;;13.40;8.40;;;18.00;45.60;;;;;;5050917;28;20187;-69
2022/03/30 11:35:20;;;;;;;17.13;9.10;;;18.00;46.10;;;;;;5056574;28;20052;-70
2022/03/30 11:38:08;;;;;;;12.52;8.23;;;18.10;46.20;;;;;;5059061;28;20029;-69
2022/03/30 11:40:37;;;;;;;17.50;8.13;;;18.20;46.10;;;;;;5060234;28;20431;-69
2022/03/30 11:43:03;;;;;;;10.10;7.35;;;18.20;45.30;;;;;;5058747;28;20065;-69
2022/03/30 11:45:30;;;;;;;11.60;7.45;;;18.10;45.80;;;;;;5059452;28;20040;-69
2022/03/30 11:47:56;;;;;;;13.18;6.70;;;18.00;45.30;;;;;;5058068;28;20028;-69
2022/03/30 11:50:31;;;;;;;12.27;7.35;;;18.00;45.40;;;;;;5059687;28;20048;-69
2022/03/30 11:53:08;;;;;;;12.75;9.07;;;17.90;46.10;;;;;;5054741;28;20049;-69
2022/03/30 11:55:51;;;;;;;47.10;28.27;;;18.10;46.40;;;;;;5058406;28;20055;-69
2022/03/30 11:58:31;;;;;;;13.25;8.48;;;18.20;46.20;;;;;;5052583;28;20036;-70
2022/03/30 12:01:00;;;;;;;14.80;8.15;;;18.10;45.40;;;;;;5048072;28;20045;-69
2022/03/30 12:03:26;;;;;;;10.23;7.53;;;18.10;45.40;;;;;;5052059;28;20118;-70
2022/03/30 12:05:54;;;;;;;11.77;8.27;;;18.20;45.40;;;;;;5030698;28;20052;-70
2022/03/30 12:08:20;;;;;;;12.65;7.97;;;18.10;45.10;;;;;;5054096;28;20033;-70
2022/03/30 12:10:48;;;;;;;16.17;8.85;;;18.10;45.00;;;;;;5053523;28;20060;-70
2022/03/30 12:13:21;;;;;;;19.73;9.27;;;18.10;45.50;;;;;;5051769;28;20025;-70
2022/03/30 12:15:47;;;;;;;45.58;32.33;;;18.10;44.70;;;;;;5056872;28;20033;-69
2022/03/30 12:18:12;;;;;;;20.70;11.02;;;18.00;45.50;;;;;;5059136;28;20523;-70
2022/03/30 12:20:38;;;;;;;14.75;9.07;;;18.00;45.90;;;;;;5056425;28;20037;-70
2022/03/30 12:23:06;;;;;;;19.50;12.05;;;18.00;45.90;;;;;;5057941;28;20036;-69
2022/03/30 12:25:34;;;;;;;15.93;9.98;;;18.00;46.30;;;;;;5052743;28;20029;-70
2022/03/30 12:28:02;;;;;;;17.17;10.32;;;18.00;45.40;;;;;;5048299;28;20120;-69
2022/03/30 12:30:38;;;;;;;17.05;10.73;;;17.90;46.00;;;;;;5054541;28;20088;-70
2022/03/30 12:33:04;;;;;;;18.40;10.02;;;17.80;45.40;;;;;;5050836;28;20152;-69
2022/03/30 12:35:38;;;;;;;18.10;10.63;;;17.80;45.90;;;;;;5054265;28;20432;-70
2022/03/30 12:38:14;;;;;;;19.98;11.75;;;17.80;46.50;;;;;;5055534;28;20039;-70
2022/03/30 12:40:42;;;;;;;18.95;13.50;;;17.80;46.60;;;;;;5057200;28;20043;-69
2022/03/30 12:43:10;;;;;;;18.60;13.05;;;17.80;46.70;;;;;;5055735;28;20116;-69
2022/03/30 12:45:53;;;;;;;25.50;15.32;;;17.80;46.60;;;;;;5054353;28;20568;-69
2022/03/30 12:48:29;;;;;;;15.77;10.68;;;17.80;46.30;;;;;;5053768;28;20042;-70
2022/03/30 12:50:58;;;;;;;15.77;10.75;;;17.80;46.40;;;;;;5053777;28;20039;-70